createdAt,value
2023-02-15T00:01:33.064Z,42.92
2023-02-15T00:03:59.536Z,43.33
2023-02-15T00:06:26.717Z,44.85
2023-02-15T00:08:55.039Z,43.78
2023-02-15T00:11:40.567Z,44.33
2023-02-15T00:14:12.710Z,43.40
2023-02-15T00:16:41.142Z,42.25
2023-02-15T00:19:08.570Z,45.20
2023-02-15T00:21:37.221Z,45.08
2023-02-15T00:24:05.607Z,44.75
2023-02-15T00:26:32.461Z,42.65
2023-02-15T00:28:59.893Z,47.85
2023-02-15T00:31:28.318Z,49.38
2023-02-15T00:33:54.832Z,41.85
2023-02-15T00:36:21.250Z,45.80
2023-02-15T00:38:47.709Z,42.83
2023-02-15T00:41:14.106Z,43.35
2023-02-15T00:43:40.511Z,45.05
2023-02-15T00:46:07.076Z,47.30
2023-02-15T00:48:34.036Z,40.10
2023-02-15T00:51:01.003Z,41.17
2023-02-15T00:53:28.482Z,44.17
2023-02-15T00:55:55.246Z,45.50
2023-02-15T00:58:21.889Z,44.67
2023-02-15T01:00:48.678Z,48.03
2023-02-15T01:03:17.191Z,46.00
2023-02-15T01:05:43.989Z,46.70
2023-02-15T01:08:10.469Z,47.30
2023-02-15T01:10:37.444Z,43.92
2023-02-15T01:13:03.996Z,46.78
2023-02-15T01:15:30.760Z,45.50
2023-02-15T01:17:57.317Z,50.20
2023-02-15T01:20:28.921Z,44.00
2023-02-15T01:25:25.065Z,47.10
2023-02-15T01:27:51.570Z,55.83
2023-02-15T01:30:18.538Z,51.28
2023-02-15T01:32:45.103Z,48.03
2023-02-15T01:35:12.307Z,45.08
2023-02-15T01:37:39.109Z,50.20
2023-02-15T01:40:09.017Z,47.78
2023-02-15T01:42:35.836Z,46.83
2023-02-15T01:45:15.472Z,48.65
2023-02-15T01:48:06.433Z,42.63
2023-02-15T01:50:38.078Z,50.20
2023-02-15T01:53:17.470Z,44.20
2023-02-15T01:55:59.278Z,43.90
2023-02-15T01:58:30.015Z,40.25
2023-02-15T02:00:59.694Z,42.42
2023-02-15T02:03:48.287Z,43.70
2023-02-15T02:06:15.414Z,44.47
2023-02-15T02:08:42.953Z,44.38
2023-02-15T02:11:15.913Z,46.63
2023-02-15T02:13:44.502Z,46.63
2023-02-15T02:16:16.794Z,49.65
2023-02-15T02:19:04.461Z,45.13
2023-02-15T02:21:39.933Z,51.28
2023-02-15T02:24:42.974Z,48.78
2023-02-15T02:27:31.181Z,47.78
2023-02-15T02:30:17.963Z,47.63
2023-02-15T02:33:18.276Z,46.45
2023-02-15T02:36:01.490Z,45.50
2023-02-15T02:39:11.786Z,46.33
2023-02-15T02:41:55.544Z,49.63
2023-02-15T02:44:43.891Z,44.83
2023-02-15T02:47:17.113Z,50.75
2023-02-15T02:49:45.012Z,46.47
2023-02-15T02:52:38.210Z,46.28
2023-02-15T02:55:26.710Z,44.25
2023-02-15T02:58:11.062Z,43.17
2023-02-15T03:00:45.461Z,45.88
2023-02-15T03:03:21.687Z,48.63
2023-02-15T03:05:52.361Z,49.53
2023-02-15T03:08:25.191Z,50.43
2023-02-15T03:10:55.289Z,52.95
2023-02-15T03:13:23.120Z,51.20
2023-02-15T03:16:09.967Z,52.45
2023-02-15T03:18:42.479Z,51.33
2023-02-15T03:21:22.973Z,53.00
2023-02-15T03:23:54.847Z,51.50
2023-02-15T03:26:23.625Z,56.92
2023-02-15T03:28:54.334Z,59.30
2023-02-15T03:31:24.383Z,54.47
2023-02-15T03:33:57.508Z,53.13
2023-02-15T03:36:29.918Z,57.35
2023-02-15T03:39:05.993Z,56.15
2023-02-15T03:41:37.987Z,55.75
2023-02-15T03:44:22.102Z,50.35
2023-02-15T03:47:05.567Z,50.25
2023-02-15T03:49:37.757Z,57.58
2023-02-15T03:52:08.136Z,53.85
2023-02-15T03:54:48.581Z,50.85
2023-02-15T03:57:40.297Z,51.33
2023-02-15T04:00:31.043Z,52.05
2023-02-15T04:03:15.587Z,45.70
2023-02-15T04:05:44.616Z,48.95
2023-02-15T04:08:13.093Z,50.03
2023-02-15T04:10:55.967Z,46.92
2023-02-15T04:13:32.261Z,45.67
2023-02-15T04:16:05.976Z,46.42
2023-02-15T04:18:53.904Z,48.75
2023-02-15T04:21:40.255Z,48.30
2023-02-15T04:24:24.908Z,45.95
2023-02-15T04:26:53.813Z,49.13
2023-02-15T04:29:22.026Z,46.80
2023-02-15T04:31:49.065Z,43.30
2023-02-15T04:34:15.915Z,46.72
2023-02-15T04:36:43.326Z,47.67
2023-02-15T04:39:10.654Z,43.83
2023-02-15T04:41:37.128Z,44.03
2023-02-15T04:44:03.715Z,46.00
2023-02-15T04:46:30.194Z,44.90
2023-02-15T04:48:57.589Z,45.10
2023-02-15T04:51:24.030Z,44.65
2023-02-15T04:53:50.700Z,40.97
2023-02-15T04:56:17.063Z,43.17
2023-02-15T04:58:43.441Z,44.97
2023-02-15T05:01:10.366Z,41.83
2023-02-15T05:03:37.384Z,43.95
2023-02-15T05:06:05.028Z,42.72
2023-02-15T05:08:31.751Z,42.83
2023-02-15T05:10:58.545Z,45.63
2023-02-15T05:13:25.507Z,40.88
2023-02-15T05:15:53.184Z,43.53
2023-02-15T05:18:21.687Z,44.88
2023-02-15T05:20:49.154Z,46.42
2023-02-15T05:23:15.821Z,44.53
2023-02-15T05:26:01.205Z,46.67
2023-02-15T05:28:28.667Z,46.22
2023-02-15T05:31:04.067Z,46.60
2023-02-15T05:33:30.814Z,49.58
2023-02-15T05:35:57.204Z,47.97
2023-02-15T05:38:23.604Z,48.20
2023-02-15T05:40:51.547Z,49.88
2023-02-15T05:43:17.976Z,49.00
2023-02-15T05:45:53.240Z,47.00
2023-02-15T05:48:21.945Z,46.45
2023-02-15T05:51:07.810Z,49.25
2023-02-15T05:53:37.375Z,47.78
2023-02-15T05:56:05.395Z,47.10
2023-02-15T05:58:37.782Z,46.40
2023-02-15T06:01:19.999Z,47.45
2023-02-15T06:03:47.061Z,44.75
2023-02-15T06:06:13.776Z,39.90
2023-02-15T06:08:40.883Z,41.25
2023-02-15T06:11:08.089Z,47.53
2023-02-15T06:13:38.385Z,38.70
2023-02-15T06:16:06.420Z,39.43
2023-02-15T06:18:33.067Z,41.75
2023-02-15T06:20:59.549Z,40.63
2023-02-15T06:23:25.972Z,45.00
2023-02-15T06:25:52.586Z,38.42
2023-02-15T06:28:19.027Z,40.38
2023-02-15T06:30:45.417Z,36.40
2023-02-15T06:33:11.847Z,41.38
2023-02-15T06:35:38.282Z,39.17
2023-02-15T06:38:04.714Z,39.75
2023-02-15T06:40:31.339Z,39.95
2023-02-15T06:42:57.739Z,39.58
2023-02-15T06:45:24.211Z,40.28
2023-02-15T06:47:50.686Z,41.00
2023-02-15T06:50:17.184Z,39.67
2023-02-15T06:52:43.673Z,38.72
2023-02-15T06:55:10.128Z,42.55
2023-02-15T06:57:36.546Z,40.78
2023-02-15T07:00:05.703Z,39.35
2023-02-15T07:02:32.272Z,40.28
2023-02-15T07:04:58.711Z,42.17
2023-02-15T07:07:25.144Z,41.88
2023-02-15T07:09:51.556Z,44.25
2023-02-15T07:12:36.461Z,40.30
2023-02-15T07:15:06.916Z,40.67
2023-02-15T07:17:35.782Z,42.30
2023-02-15T07:20:18.730Z,46.17
2023-02-15T07:22:45.486Z,43.97
2023-02-15T07:25:15.108Z,43.33
2023-02-15T07:27:41.761Z,46.15
2023-02-15T07:30:12.542Z,46.80
2023-02-15T07:32:59.101Z,48.03
2023-02-15T07:35:25.866Z,47.88
2023-02-15T07:37:53.992Z,49.45
2023-02-15T07:40:20.490Z,51.45
2023-02-15T07:42:46.885Z,49.65
2023-02-15T07:45:13.476Z,52.45
2023-02-15T07:47:39.866Z,49.08
2023-02-15T07:50:06.942Z,46.60
2023-02-15T07:52:33.353Z,51.03
2023-02-15T07:54:59.767Z,51.63
2023-02-15T07:57:26.150Z,51.78
2023-02-15T07:59:52.599Z,46.50
2023-02-15T08:02:19.012Z,49.60
2023-02-15T08:04:45.512Z,48.72
2023-02-15T08:07:11.902Z,52.22
2023-02-15T08:09:38.323Z,54.13
2023-02-15T08:12:05.246Z,52.45
2023-02-15T08:14:33.260Z,52.47
2023-02-15T08:17:03.388Z,56.92
2023-02-15T08:19:32.707Z,49.03
2023-02-15T08:22:05.411Z,51.75
2023-02-15T08:24:34.076Z,54.03
2023-02-15T08:27:00.611Z,50.85
2023-02-15T08:29:29.226Z,53.30
2023-02-15T08:32:03.295Z,57.80
2023-02-15T08:34:36.844Z,56.45
2023-02-15T08:37:03.841Z,55.47
2023-02-15T08:39:30.329Z,61.00
2023-02-15T08:41:56.792Z,55.95
2023-02-15T08:44:23.724Z,60.20
2023-02-15T08:46:54.832Z,58.00
2023-02-15T08:49:28.090Z,57.92
2023-02-15T08:51:59.914Z,57.60
2023-02-15T08:54:27.621Z,61.47
2023-02-15T08:56:54.201Z,59.08
2023-02-15T08:59:22.900Z,62.25
2023-02-15T09:01:53.727Z,55.55
2023-02-15T09:04:21.720Z,63.88
2023-02-15T09:06:50.063Z,63.97
2023-02-15T09:09:18.000Z,64.40
2023-02-15T09:11:46.398Z,65.22
2023-02-15T09:14:15.830Z,66.20
2023-02-15T09:16:49.765Z,62.58
2023-02-15T09:19:18.443Z,64.53
2023-02-15T09:21:44.970Z,65.03
2023-02-15T09:24:14.670Z,70.32
2023-02-15T09:26:43.739Z,69.15
2023-02-15T09:29:11.651Z,64.03
2023-02-15T09:31:43.605Z,67.45
2023-02-15T09:34:10.445Z,61.42
2023-02-15T09:36:38.719Z,64.50
2023-02-15T09:39:11.211Z,65.80
2023-02-15T09:41:37.659Z,63.97
2023-02-15T09:44:09.936Z,65.03
2023-02-15T09:47:11.929Z,60.70
2023-02-15T09:49:57.832Z,61.13
2023-02-15T09:52:48.878Z,64.90
2023-02-15T09:55:57.415Z,62.53
2023-02-15T09:58:32.399Z,60.63
2023-02-15T10:01:06.900Z,61.35
2023-02-15T10:03:50.271Z,59.80
2023-02-15T10:06:45.169Z,62.30
2023-02-15T10:09:49.165Z,62.55
2023-02-15T10:12:21.771Z,61.15
2023-02-15T10:15:12.472Z,62.42
2023-02-15T10:18:12.739Z,58.63
2023-02-15T10:21:11.039Z,64.40
2023-02-15T10:23:46.473Z,62.80
2023-02-15T10:26:19.023Z,57.15
2023-02-15T10:28:56.266Z,58.83
2023-02-15T10:31:25.829Z,60.58
2023-02-15T10:34:16.619Z,53.17
2023-02-15T10:37:15.827Z,56.95
2023-02-15T10:40:02.411Z,59.65
2023-02-15T10:42:53.429Z,58.15
2023-02-15T10:45:46.719Z,57.15
2023-02-15T10:48:31.390Z,58.53
2023-02-15T10:51:06.216Z,60.72
2023-02-15T10:53:47.940Z,59.95
2023-02-15T10:56:30.191Z,58.75
2023-02-15T10:59:21.250Z,60.95
2023-02-15T11:02:02.340Z,54.50
2023-02-15T11:04:45.285Z,60.33
2023-02-15T11:07:21.136Z,56.25
2023-02-15T11:10:20.486Z,57.05
2023-02-15T11:12:48.852Z,59.53
2023-02-15T11:15:26.344Z,59.10
2023-02-15T11:18:24.360Z,60.28
2023-02-15T11:20:56.624Z,55.60
2023-02-15T11:23:25.259Z,53.92
2023-02-15T11:26:11.903Z,54.08
2023-02-15T11:28:45.967Z,54.83
2023-02-15T11:31:19.135Z,49.33
2023-02-15T11:33:52.560Z,50.90
2023-02-15T11:36:39.390Z,52.80
2023-02-15T11:39:16.602Z,50.85
2023-02-15T11:41:48.696Z,55.03
2023-02-15T11:44:40.329Z,48.45
2023-02-15T11:49:39.297Z,44.55
2023-02-15T11:52:13.270Z,48.97
2023-02-15T11:54:46.380Z,44.90
2023-02-15T11:57:24.164Z,53.38
2023-02-15T12:00:14.343Z,46.75
2023-02-15T12:02:45.541Z,50.08
2023-02-15T12:05:16.253Z,49.53
2023-02-15T12:07:59.798Z,45.60
2023-02-15T12:10:30.622Z,43.45
2023-02-15T12:13:18.162Z,46.58
2023-02-15T12:15:56.800Z,44.15
2023-02-15T12:18:41.744Z,45.92
2023-02-15T12:21:34.883Z,45.88
2023-02-15T12:24:18.131Z,49.05
2023-02-15T12:26:45.101Z,45.00
2023-02-15T12:29:21.654Z,46.53
2023-02-15T12:31:52.620Z,44.67
2023-02-15T12:34:23.621Z,47.25
2023-02-15T12:36:55.385Z,44.13
2023-02-15T12:39:26.959Z,45.22
2023-02-15T12:41:54.483Z,44.50
2023-02-15T12:44:27.586Z,46.65
2023-02-15T12:46:58.739Z,42.42
2023-02-15T12:49:26.122Z,42.88
2023-02-15T12:51:58.159Z,41.67
2023-02-15T12:54:41.106Z,40.88
2023-02-15T12:57:21.756Z,40.88
2023-02-15T13:00:04.244Z,40.42
2023-02-15T13:02:50.883Z,40.17
2023-02-15T13:05:27.036Z,42.97
2023-02-15T13:07:57.937Z,43.42
2023-02-15T13:10:36.076Z,41.67
2023-02-15T13:13:09.766Z,40.30
2023-02-15T13:15:42.339Z,41.03
2023-02-15T13:18:19.567Z,43.92
2023-02-15T13:20:47.627Z,41.92
2023-02-15T13:23:31.145Z,39.60
2023-02-15T13:26:03.237Z,38.72
2023-02-15T13:28:41.998Z,37.00
2023-02-15T13:31:18.427Z,36.13
2023-02-15T13:33:52.419Z,39.50
2023-02-15T13:36:32.352Z,39.17
2023-02-15T13:39:33.001Z,36.47
2023-02-15T13:42:04.690Z,36.13
2023-02-15T13:44:52.249Z,37.55
2023-02-15T13:47:40.229Z,41.85
2023-02-15T13:50:31.610Z,36.28
2023-02-15T13:53:18.310Z,39.22
2023-02-15T13:55:53.725Z,37.35
2023-02-15T13:58:22.852Z,36.70
2023-02-15T14:01:37.767Z,36.65
2023-02-15T14:04:06.893Z,37.10
2023-02-15T14:07:00.978Z,34.95
2023-02-15T14:09:33.216Z,36.38
2023-02-15T14:12:24.515Z,34.75
2023-02-15T14:15:07.600Z,33.75
2023-02-15T14:17:52.235Z,36.13
2023-02-15T14:20:33.708Z,36.08
2023-02-15T14:23:30.540Z,35.65
2023-02-15T14:26:02.363Z,31.67
2023-02-15T14:28:34.764Z,32.40
2023-02-15T14:31:05.942Z,37.47
2023-02-15T14:33:34.403Z,39.53
2023-02-15T14:36:03.815Z,32.60
2023-02-15T14:38:51.797Z,34.20
2023-02-15T14:41:51.102Z,36.72
2023-02-15T14:44:41.099Z,34.55
2023-02-15T14:47:35.105Z,37.55
2023-02-15T14:50:38.277Z,37.00
2023-02-15T14:53:16.312Z,34.17
2023-02-15T14:55:44.006Z,36.40
2023-02-15T14:58:14.469Z,39.58
2023-02-15T15:00:42.693Z,37.10
2023-02-15T15:03:24.236Z,37.35
2023-02-15T15:05:56.203Z,34.05
2023-02-15T15:08:42.850Z,36.03
2023-02-15T15:11:51.524Z,31.27
2023-02-15T15:14:51.174Z,33.88
2023-02-15T15:17:38.944Z,36.05
2023-02-15T15:20:35.396Z,32.60
2023-02-15T15:23:24.343Z,33.03
2023-02-15T15:25:57.659Z,36.63
2023-02-15T15:28:37.289Z,35.78
2023-02-15T15:31:21.102Z,35.50
2023-02-15T15:34:10.944Z,33.63
2023-02-15T15:36:55.083Z,35.38
2023-02-15T15:40:26.606Z,32.35
2023-02-15T15:43:01.856Z,36.45
2023-02-15T15:45:47.442Z,30.67
2023-02-15T15:48:34.503Z,32.40
2023-02-15T15:51:06.587Z,32.38
2023-02-15T15:53:41.044Z,34.63
2023-02-15T15:56:12.656Z,33.05
2023-02-15T15:58:45.814Z,33.75
2023-02-15T16:01:14.741Z,36.55
2023-02-15T16:03:55.580Z,30.15
2023-02-15T16:06:37.068Z,34.80
2023-02-15T16:09:25.635Z,29.08
2023-02-15T16:11:59.286Z,35.28
2023-02-15T16:14:37.531Z,34.35
2023-02-15T16:17:08.142Z,36.95
2023-02-15T16:19:46.044Z,42.67
2023-02-15T16:22:41.002Z,44.10
2023-02-15T16:28:19.762Z,46.55
2023-02-15T16:30:52.206Z,45.33
2023-02-15T16:33:21.057Z,45.30
2023-02-15T16:36:03.637Z,53.25
2023-02-15T16:41:41.411Z,53.10
2023-02-15T16:46:47.180Z,51.10
2023-02-15T16:52:25.031Z,45.45
2023-02-15T16:55:09.364Z,42.88
2023-02-15T16:57:39.420Z,47.20
2023-02-15T17:00:21.314Z,43.45
2023-02-15T17:03:07.308Z,43.45
2023-02-15T17:05:46.155Z,49.38
2023-02-15T17:08:35.836Z,45.17
2023-02-15T17:11:14.781Z,46.63
2023-02-15T17:14:07.680Z,48.97
2023-02-15T17:16:43.304Z,50.08
2023-02-15T17:19:15.821Z,48.55
2023-02-15T17:21:48.971Z,48.15
2023-02-15T17:24:23.838Z,60.28
2023-02-15T17:27:00.615Z,55.97
2023-02-15T17:29:34.545Z,51.28
2023-02-15T17:32:02.854Z,52.15
2023-02-15T17:34:47.608Z,57.03
2023-02-15T17:37:44.285Z,51.78
2023-02-15T17:40:27.151Z,56.58
2023-02-15T17:42:54.074Z,55.58
2023-02-15T17:45:21.856Z,53.30
2023-02-15T17:47:50.033Z,60.92
2023-02-15T17:50:25.431Z,56.53
2023-02-15T17:52:54.068Z,58.13
2023-02-15T17:55:41.371Z,55.00
2023-02-15T17:58:09.620Z,54.00
2023-02-15T18:00:59.207Z,53.58
2023-02-15T18:03:52.672Z,60.88
2023-02-15T18:06:40.847Z,59.33
2023-02-15T18:09:32.898Z,63.70
2023-02-15T18:11:59.824Z,58.88
2023-02-15T18:14:27.093Z,61.83
2023-02-15T18:16:54.896Z,56.33
2023-02-15T18:19:24.031Z,55.95
2023-02-15T18:21:52.690Z,55.42
2023-02-15T18:24:24.728Z,55.28
2023-02-15T18:26:53.470Z,59.05
2023-02-15T18:29:20.556Z,56.75
2023-02-15T18:31:53.404Z,58.78
2023-02-15T18:34:28.291Z,58.13
2023-02-15T18:36:55.589Z,50.63
2023-02-15T18:39:34.194Z,52.97
2023-02-15T18:42:01.339Z,51.53
2023-02-15T18:44:27.872Z,51.72
2023-02-15T18:46:54.367Z,46.05
2023-02-15T18:49:20.872Z,51.40
2023-02-15T18:51:47.443Z,53.72
2023-02-15T18:54:23.318Z,48.67
2023-02-15T18:56:55.479Z,49.75
2023-02-15T18:59:24.085Z,49.95
2023-02-15T19:01:51.751Z,49.58
2023-02-15T19:04:18.457Z,49.55
2023-02-15T19:06:47.453Z,50.15
2023-02-15T19:09:23.782Z,49.50
2023-02-15T19:11:54.986Z,47.95
2023-02-15T19:14:32.790Z,46.83
2023-02-15T19:17:00.457Z,47.42
2023-02-15T19:19:27.687Z,47.25
2023-02-15T19:21:55.035Z,47.70
2023-02-15T19:24:42.704Z,46.22
2023-02-15T19:27:31.326Z,45.58
2023-02-15T19:30:00.992Z,41.78
2023-02-15T19:32:27.817Z,39.50
2023-02-15T19:34:54.235Z,41.65
2023-02-15T19:37:30.836Z,41.60
2023-02-15T19:39:57.414Z,44.47
2023-02-15T19:42:24.146Z,46.03
2023-02-15T19:44:51.462Z,45.40
2023-02-15T19:47:18.218Z,40.13
2023-02-15T19:49:44.636Z,41.40
2023-02-15T19:52:20.414Z,44.17
2023-02-15T19:54:48.284Z,40.80
2023-02-15T19:57:14.747Z,42.40
2023-02-15T19:59:41.942Z,43.17
2023-02-15T20:02:14.620Z,44.60
2023-02-15T20:04:41.654Z,47.53
2023-02-15T20:07:26.105Z,51.30
2023-02-15T20:09:52.695Z,50.67
2023-02-15T20:12:26.721Z,53.42
2023-02-15T20:14:53.417Z,55.55
2023-02-15T20:17:19.928Z,59.45
2023-02-15T20:19:46.437Z,57.30
2023-02-15T20:22:26.139Z,57.47
2023-02-15T20:24:55.467Z,57.22
2023-02-15T20:27:22.089Z,54.38
2023-02-15T20:29:50.429Z,51.83
2023-02-15T20:32:17.104Z,53.33
2023-02-15T20:34:43.647Z,49.67
2023-02-15T20:37:21.807Z,48.45
2023-02-15T20:39:48.298Z,52.42
2023-02-15T20:42:15.220Z,52.63
2023-02-15T20:44:41.948Z,54.10
2023-02-15T20:47:08.373Z,53.55
2023-02-15T20:49:36.960Z,49.17
2023-02-15T20:52:18.068Z,52.55
2023-02-15T20:54:44.587Z,51.40
2023-02-15T20:57:12.448Z,63.17
2023-02-15T20:59:40.575Z,60.85
2023-02-15T21:02:23.806Z,51.53
2023-02-15T21:04:50.658Z,53.25
2023-02-15T21:07:19.372Z,55.50
2023-02-15T21:09:46.338Z,69.75
2023-02-15T21:12:15.362Z,68.03
2023-02-15T21:14:41.872Z,67.10
2023-02-15T21:17:11.999Z,61.28
2023-02-15T21:19:40.977Z,66.68
2023-02-15T21:22:12.916Z,64.95
2023-02-15T21:24:39.572Z,64.07
2023-02-15T21:27:06.809Z,62.63
2023-02-15T21:29:33.283Z,58.70
2023-02-15T21:32:00.498Z,57.95
2023-02-15T21:34:26.983Z,63.40
2023-02-15T21:36:53.670Z,60.20
2023-02-15T21:39:28.979Z,61.08
2023-02-15T21:42:14.736Z,59.47
2023-02-15T21:44:59.987Z,55.67
2023-02-15T21:47:48.363Z,53.90
2023-02-15T21:50:34.836Z,57.78
2023-02-15T21:53:03.344Z,57.67
2023-02-15T21:55:31.502Z,55.80
2023-02-15T21:57:57.926Z,55.78
2023-02-15T22:00:25.580Z,55.50
2023-02-15T22:02:58.246Z,54.28
2023-02-15T22:05:28.170Z,55.63
2023-02-15T22:07:55.414Z,58.83
2023-02-15T22:10:22.900Z,59.38
2023-02-15T22:12:51.476Z,56.55
2023-02-15T22:15:23.934Z,60.33
2023-02-15T22:17:51.706Z,56.53
2023-02-15T22:20:20.704Z,55.90
2023-02-15T22:22:49.358Z,52.95
2023-02-15T22:25:18.172Z,54.35
2023-02-15T22:27:46.241Z,56.90
2023-02-15T22:30:27.060Z,60.38
2023-02-15T22:32:55.454Z,55.97
2023-02-15T22:35:24.917Z,52.53
2023-02-15T22:37:51.443Z,53.53
2023-02-15T22:40:19.303Z,53.78
2023-02-15T22:42:48.362Z,56.38
2023-02-15T22:45:20.290Z,58.75
2023-02-15T22:47:52.666Z,57.17
2023-02-15T22:50:22.281Z,54.38
2023-02-15T22:52:49.688Z,57.20
2023-02-15T22:55:18.254Z,59.00
2023-02-15T22:57:47.951Z,60.83
2023-02-15T23:00:23.180Z,59.65
2023-02-15T23:02:49.779Z,59.17
2023-02-15T23:05:22.145Z,56.90
2023-02-15T23:07:49.310Z,52.75
2023-02-15T23:10:23.815Z,56.08
2023-02-15T23:13:12.489Z,55.55
2023-02-15T23:15:40.539Z,55.05
2023-02-15T23:18:15.256Z,52.50
2023-02-15T23:20:41.767Z,50.35
2023-02-15T23:23:13.164Z,60.28
2023-02-15T23:25:40.719Z,61.13
2023-02-15T23:28:19.038Z,63.40
2023-02-15T23:30:46.804Z,62.25
2023-02-15T23:33:13.871Z,62.63
2023-02-15T23:35:40.465Z,62.33
2023-02-15T23:38:21.618Z,60.00
2023-02-15T23:41:11.428Z,59.88
2023-02-15T23:43:40.487Z,60.72
2023-02-15T23:46:08.297Z,56.13
2023-02-15T23:48:38.446Z,65.90
2023-02-15T23:51:06.547Z,65.35
2023-02-15T23:53:33.612Z,66.05
2023-02-15T23:56:00.406Z,57.00
2023-02-15T23:58:35.215Z,62.95
